Time;durP1;ratioP1;P1;durP2;ratioP2;P2;SDS_P1;SDS_P2;PMS_P1;PMS_P2;Temp;Humidity;BMP_temperature;BMP_pressure;BME280_temperature;BME280_humidity;BME280_pressure;Samples;Min_cycle;Max_cycle;Signal;HPM_P1;HPM_P2
2021/06/12 00:01:15;;;;;;;0.40;0.30;;;18.50;61.50;;;;;;5052634;28;20100;-62
2021/06/12 00:03:43;;;;;;;0.43;0.28;;;18.60;60.10;;;;;;5052098;28;20483;-56
2021/06/12 00:06:10;;;;;;;0.65;0.30;;;18.70;61.30;;;;;;5052544;28;20017;-61
2021/06/12 00:08:37;;;;;;;2.58;0.30;;;18.60;61.80;;;;;;5052114;28;20021;-57
2021/06/12 00:11:05;;;;;;;0.40;0.25;;;18.70;61.10;;;;;;5052209;28;20028;-54
2021/06/12 00:13:32;;;;;;;1.90;0.52;;;19.00;60.00;;;;;;5052439;28;20112;-59
2021/06/12 00:16:00;;;;;;;0.40;0.32;;;18.90;59.70;;;;;;5051959;28;20372;-61
2021/06/12 00:18:27;;;;;;;0.93;0.28;;;19.00;60.20;;;;;;5051203;28;20033;-60
2021/06/12 00:20:57;;;;;;;2.17;0.52;;;19.00;59.40;;;;;;5052461;28;20033;-56
2021/06/12 00:23:26;;;;;;;0.40;0.30;;;19.20;59.90;;;;;;5051747;28;20021;-59
2021/06/12 00:25:53;;;;;;;0.30;0.30;;;19.30;59.90;;;;;;5051668;28;20025;-57
2021/06/12 00:28:21;;;;;;;0.90;0.30;;;19.20;59.90;;;;;;5051970;28;20037;-61
2021/06/12 00:30:48;;;;;;;0.75;0.20;;;19.20;57.00;;;;;;5055188;28;20029;-66
2021/06/12 00:33:16;;;;;;;0.50;0.30;;;19.30;59.00;;;;;;5055929;28;20029;-60
2021/06/12 00:35:44;;;;;;;0.25;0.20;;;19.30;59.60;;;;;;5056207;28;20454;-61
2021/06/12 00:38:12;;;;;;;0.20;0.15;;;19.40;59.50;;;;;;5055960;28;20037;-63
2021/06/12 00:40:39;;;;;;;2.50;0.20;;;19.20;59.90;;;;;;5055512;28;20055;-58
2021/06/12 00:43:07;;;;;;;0.10;0.10;;;19.30;58.60;;;;;;5056332;28;20021;-64
2021/06/12 00:45:35;;;;;;;0.40;0.20;;;19.40;56.90;;;;;;5055518;28;20451;-63
2021/06/12 00:48:03;;;;;;;0.70;0.17;;;19.40;59.50;;;;;;5055594;28;20032;-56
2021/06/12 00:50:33;;;;;;;0.50;0.35;;;19.70;58.60;;;;;;5056216;28;20478;-64
2021/06/12 00:53:01;;;;;;;1.85;0.60;;;19.70;57.00;;;;;;5056128;28;20063;-64
2021/06/12 00:55:28;;;;;;;0.68;0.40;;;19.80;55.60;;;;;;5055913;28;20146;-62
2021/06/12 00:57:57;;;;;;;1.38;0.22;;;19.90;58.30;;;;;;5055444;28;20037;-63
2021/06/12 01:00:25;;;;;;;0.60;0.20;;;20.10;57.70;;;;;;5055435;28;20073;-62
2021/06/12 01:02:52;;;;;;;1.10;0.25;;;20.10;57.60;;;;;;5055672;28;20404;-60
2021/06/12 01:05:22;;;;;;;1.60;0.60;;;20.10;57.30;;;;;;5054933;28;20086;-58
2021/06/12 01:07:50;;;;;;;0.28;0.28;;;20.30;56.80;;;;;;5055504;28;20021;-59
2021/06/12 01:10:19;;;;;;;1.50;0.30;;;20.10;57.30;;;;;;5054926;28;20021;-64
2021/06/12 01:12:46;;;;;;;0.52;0.35;;;20.10;57.90;;;;;;5055123;28;20064;-58
2021/06/12 01:15:14;;;;;;;1.77;0.30;;;20.00;58.20;;;;;;5055384;28;20111;-58
2021/06/12 01:17:48;;;;;;;0.30;0.30;;;20.00;56.20;;;;;;5055626;28;20485;-65
2021/06/12 01:20:21;;;;;;;0.25;0.20;;;20.10;56.20;;;;;;5055358;28;20041;-69
2021/06/12 01:22:48;;;;;;;1.95;0.22;;;20.00;58.00;;;;;;5055201;28;20060;-63
2021/06/12 01:25:40;;;;;;;0.60;0.30;;;20.10;58.20;;;;;;5053386;28;20029;-51
2021/06/12 01:28:44;;;;;;;0.30;0.20;;;20.10;56.90;;;;;;5055074;28;20475;-58
2021/06/12 01:31:13;;;;;;;0.38;0.10;;;20.10;56.90;;;;;;5036890;28;20759;-62
2021/06/12 01:33:44;;;;;;;2.20;0.20;;;20.10;57.30;;;;;;5054585;28;20028;-62
2021/06/12 01:36:13;;;;;;;0.10;0.10;;;20.20;57.50;;;;;;5054890;28;20028;-57
2021/06/12 01:38:46;;;;;;;1.27;0.25;;;20.20;57.10;;;;;;5054947;28;20033;-64
2021/06/12 01:41:20;;;;;;;0.20;0.20;;;20.20;55.30;;;;;;5054242;28;20044;-66
2021/06/12 01:43:49;;;;;;;0.17;0.17;;;20.20;57.80;;;;;;5055294;28;20375;-59
2021/06/12 01:46:19;;;;;;;0.40;0.35;;;20.30;57.50;;;;;;5036717;28;20029;-62
2021/06/12 01:48:48;;;;;;;0.57;0.25;;;20.50;56.00;;;;;;5054683;28;20029;-63
2021/06/12 01:51:16;;;;;;;0.10;0.10;;;20.50;55.10;;;;;;5054336;28;20442;-66
2021/06/12 01:53:51;;;;;;;0.75;0.28;;;20.60;55.40;;;;;;5054724;28;20029;-57
2021/06/12 01:56:19;;;;;;;0.43;0.28;;;20.50;55.80;;;;;;5054550;28;20025;-60
2021/06/12 01:58:47;;;;;;;0.65;0.30;;;20.60;56.50;;;;;;5053703;28;20049;-60
2021/06/12 02:01:16;;;;;;;0.77;0.40;;;20.50;55.60;;;;;;5053941;28;20037;-57
2021/06/12 02:03:46;;;;;;;0.38;0.20;;;20.40;56.20;;;;;;5035775;28;20021;-57
2021/06/12 02:06:17;;;;;;;2.20;0.20;;;20.40;56.80;;;;;;5053939;28;20493;-60
2021/06/12 02:08:46;;;;;;;1.17;0.20;;;20.40;55.00;;;;;;5053923;28;20108;-62
2021/06/12 02:11:17;;;;;;;0.20;0.10;;;20.40;57.20;;;;;;5053993;28;20056;-64
2021/06/12 02:13:46;;;;;;;0.20;0.20;;;20.30;55.60;;;;;;5053942;28;20028;-60
2021/06/12 02:16:15;;;;;;;0.95;0.20;;;20.30;56.40;;;;;;5053797;28;20017;-57
2021/06/12 02:18:46;;;;;;;0.70;0.30;;;20.00;55.80;;;;;;5052369;28;20514;-60
2021/06/12 02:21:15;;;;;;;0.40;0.20;;;20.10;57.50;;;;;;5053754;28;20460;-58
2021/06/12 02:23:43;;;;;;;0.57;0.30;;;20.20;57.60;;;;;;5056878;28;20493;-48
2021/06/12 02:26:13;;;;;;;0.88;0.40;;;20.20;58.10;;;;;;5071825;28;20179;-51
2021/06/12 02:28:42;;;;;;;0.40;0.20;;;20.30;56.90;;;;;;5071031;28;20052;-61
2021/06/12 02:31:25;;;;;;;0.80;0.20;;;20.40;57.10;;;;;;5072745;28;20024;-51
2021/06/12 02:33:53;;;;;;;0.88;0.40;;;20.60;56.00;;;;;;5071766;28;20020;-57
2021/06/12 02:36:21;;;;;;;0.60;0.20;;;20.60;58.00;;;;;;5054908;28;20103;-51
2021/06/12 02:38:49;;;;;;;0.28;0.28;;;20.70;57.20;;;;;;5068671;28;20090;-51
2021/06/12 02:41:18;;;;;;;1.83;0.20;;;20.90;56.20;;;;;;5073207;28;20029;-47
2021/06/12 02:43:45;;;;;;;0.50;0.30;;;20.90;56.10;;;;;;5071137;28;20108;-56
2021/06/12 02:46:21;;;;;;;1.08;0.20;;;20.80;55.50;;;;;;5072778;28;20468;-58
2021/06/12 02:48:54;;;;;;;0.73;0.25;;;21.00;54.70;;;;;;5050473;28;20025;-52
2021/06/12 02:51:27;;;;;;;0.43;0.20;;;21.00;55.70;;;;;;5072531;28;20033;-62
2021/06/12 02:53:58;;;;;;;0.30;0.20;;;21.10;53.30;;;;;;5071716;28;20554;-55
2021/06/12 02:56:31;;;;;;;2.55;0.30;;;21.20;55.20;;;;;;5072904;28;20020;-63
2021/06/12 02:59:03;;;;;;;0.47;0.28;;;21.20;54.20;;;;;;5067521;28;20060;-55
2021/06/12 03:01:31;;;;;;;0.17;0.15;;;21.10;54.10;;;;;;5084217;28;20036;-48
2021/06/12 03:03:59;;;;;;;3.45;0.30;;;21.10;55.30;;;;;;5049380;28;20320;-51
2021/06/12 03:06:28;;;;;;;1.23;0.20;;;21.20;55.10;;;;;;5071184;28;20028;-55
2021/06/12 03:08:57;;;;;;;1.38;0.40;;;21.20;53.80;;;;;;5066287;28;20112;-54
2021/06/12 03:11:27;;;;;;;4.78;0.85;;;21.20;52.80;;;;;;5070944;28;20098;-49
2021/06/12 03:13:56;;;;;;;0.22;0.20;;;21.20;52.80;;;;;;5069946;28;20025;-53
2021/06/12 03:16:25;;;;;;;0.20;0.13;;;21.20;54.80;;;;;;5070580;28;20058;-51
2021/06/12 03:18:53;;;;;;;0.13;0.10;;;21.30;52.80;;;;;;5066166;28;20048;-53
2021/06/12 03:21:25;;;;;;;0.30;0.15;;;21.40;54.20;;;;;;5070076;28;20098;-55
2021/06/12 03:23:56;;;;;;;0.13;0.13;;;21.50;54.90;;;;;;5070245;28;20031;-53
2021/06/12 03:26:24;;;;;;;0.25;0.20;;;21.40;54.80;;;;;;5072751;28;20111;-51
2021/06/12 03:28:52;;;;;;;0.10;0.10;;;21.40;53.20;;;;;;5072310;28;20029;-56
2021/06/12 03:31:20;;;;;;;1.25;0.47;;;21.40;51.10;;;;;;5071911;28;20104;-62
2021/06/12 03:33:48;;;;;;;0.47;0.20;;;21.30;54.40;;;;;;5072324;28;20108;-54
2021/06/12 03:36:17;;;;;;;0.55;0.20;;;21.20;55.70;;;;;;5072411;28;20117;-54
2021/06/12 03:38:44;;;;;;;0.73;0.40;;;21.10;56.10;;;;;;5072596;28;20039;-60
2021/06/12 03:41:12;;;;;;;0.20;0.20;;;21.20;55.70;;;;;;5072220;28;20020;-61
2021/06/12 03:43:40;;;;;;;4.00;0.25;;;21.20;55.80;;;;;;5072225;28;20025;-61
2021/06/12 03:46:08;;;;;;;1.80;0.45;;;21.00;53.00;;;;;;5072007;28;20431;-54
2021/06/12 03:48:38;;;;;;;2.10;0.50;;;21.00;55.90;;;;;;5072502;28;20036;-63
2021/06/12 03:51:06;;;;;;;0.40;0.20;;;21.00;55.90;;;;;;5071572;28;20047;-60
2021/06/12 03:53:43;;;;;;;0.32;0.30;;;21.00;55.70;;;;;;5072512;28;20073;-62
2021/06/12 03:56:13;;;;;;;1.50;0.30;;;20.90;56.20;;;;;;5072863;28;20032;-56
2021/06/12 03:58:43;;;;;;;0.32;0.20;;;21.00;54.30;;;;;;5071650;28;20033;-61
2021/06/12 04:01:16;;;;;;;1.98;0.10;;;21.00;55.40;;;;;;5072299;28;20370;-60
2021/06/12 04:03:44;;;;;;;2.78;1.00;;;20.80;52.40;;;;;;5071878;28;20033;-56
2021/06/12 04:06:13;;;;;;;0.35;0.30;;;20.80;52.50;;;;;;5071716;28;20025;-59
2021/06/12 04:08:41;;;;;;;0.20;0.20;;;20.80;54.80;;;;;;5071834;28;20032;-60
2021/06/12 04:11:09;;;;;;;0.20;0.10;;;20.80;56.00;;;;;;5071900;28;20024;-57
2021/06/12 04:13:37;;;;;;;0.30;0.20;;;20.90;56.20;;;;;;5071819;28;20047;-58
2021/06/12 04:16:04;;;;;;;0.43;0.30;;;20.90;56.50;;;;;;5071538;28;20550;-63
2021/06/12 04:18:32;;;;;;;3.30;0.30;;;20.80;55.40;;;;;;5071773;28;20396;-59
2021/06/12 04:20:59;;;;;;;0.50;0.30;;;20.90;56.20;;;;;;5071974;28;20491;-55
2021/06/12 04:23:27;;;;;;;1.13;0.50;;;20.80;56.30;;;;;;5061773;28;20032;-52
2021/06/12 04:25:54;;;;;;;1.20;0.30;;;20.80;56.40;;;;;;5067689;28;20032;-55
2021/06/12 04:28:22;;;;;;;2.55;0.88;;;20.90;55.50;;;;;;5069909;28;20107;-50
2021/06/12 04:30:50;;;;;;;2.65;1.40;;;21.00;52.20;;;;;;5070597;28;20025;-51
2021/06/12 04:33:18;;;;;;;9.15;3.85;;;21.00;51.60;;;;;;5048831;28;20446;-51
2021/06/12 04:35:45;;;;;;;10.98;2.67;;;21.00;54.00;;;;;;5066039;28;20058;-56
2021/06/12 04:38:13;;;;;;;8.48;5.00;;;20.10;55.90;;;;;;5069931;28;20566;-58
2021/06/12 04:40:40;;;;;;;3.10;1.00;;;19.60;58.20;;;;;;5067422;28;20084;-56
2021/06/12 04:43:09;;;;;;;2.75;1.75;;;19.80;46.60;;;;;;5069688;28;20070;-56
2021/06/12 04:45:37;;;;;;;6.00;5.35;;;20.00;49.40;;;;;;5033985;28;20086;-59
2021/06/12 04:48:05;;;;;;;1.58;1.17;;;19.70;54.50;;;;;;5069788;28;20025;-61
2021/06/12 04:50:36;;;;;;;7.95;3.67;;;19.60;50.40;;;;;;5068631;28;20052;-54
2021/06/12 04:53:05;;;;;;;6.22;3.72;;;19.50;55.10;;;;;;5067959;28;20032;-54
2021/06/12 04:55:33;;;;;;;14.70;6.28;;;19.70;56.60;;;;;;5063259;28;20028;-50
2021/06/12 04:58:01;;;;;;;8.98;5.40;;;19.70;58.60;;;;;;5064804;28;20037;-54
2021/06/12 05:00:29;;;;;;;8.55;3.85;;;20.00;50.80;;;;;;5067726;28;20013;-59
2021/06/12 05:02:56;;;;;;;7.22;2.85;;;20.10;53.00;;;;;;5066232;28;20025;-49
2021/06/12 05:05:24;;;;;;;7.65;4.28;;;19.90;50.80;;;;;;5067547;28;20028;-59
2021/06/12 05:07:51;;;;;;;21.40;7.97;;;19.90;55.90;;;;;;5049411;28;20108;-50
2021/06/12 05:10:18;;;;;;;15.98;8.75;;;19.90;54.00;;;;;;5068635;28;20040;-54
2021/06/12 05:12:46;;;;;;;8.10;5.15;;;19.90;56.30;;;;;;5067615;28;20028;-52
2021/06/12 05:15:13;;;;;;;4.35;2.72;;;20.00;55.70;;;;;;5066288;28;20038;-52
2021/06/12 05:17:42;;;;;;;3.78;1.38;;;20.00;53.70;;;;;;5070821;28;20032;-54
2021/06/12 05:20:12;;;;;;;12.48;5.68;;;19.90;48.80;;;;;;5070951;28;20110;-56
2021/06/12 05:22:39;;;;;;;6.90;5.72;;;19.90;56.80;;;;;;5072086;28;20048;-55
2021/06/12 05:25:07;;;;;;;5.43;3.97;;;19.80;57.30;;;;;;5073179;28;20036;-49
2021/06/12 05:27:34;;;;;;;4.28;3.03;;;19.60;54.00;;;;;;5071370;28;20426;-52
2021/06/12 05:30:01;;;;;;;4.03;1.35;;;19.70;48.60;;;;;;5072958;28;20029;-51
2021/06/12 05:32:29;;;;;;;4.97;2.25;;;19.80;55.10;;;;;;5072609;28;20021;-55
2021/06/12 05:34:57;;;;;;;4.97;3.40;;;19.60;54.20;;;;;;5072552;28;20028;-53
2021/06/12 05:37:25;;;;;;;2.90;1.33;;;19.60;56.50;;;;;;5068952;28;20069;-56
2021/06/12 05:39:52;;;;;;;19.55;3.72;;;19.50;53.00;;;;;;5071260;28;20054;-58
2021/06/12 05:42:20;;;;;;;8.23;2.75;;;19.50;58.70;;;;;;5069851;28;20032;-56
2021/06/12 05:44:47;;;;;;;6.05;2.17;;;19.40;56.60;;;;;;5071156;28;20115;-58
2021/06/12 05:47:14;;;;;;;21.80;3.13;;;19.10;56.30;;;;;;5049158;28;20025;-53
2021/06/12 05:49:42;;;;;;;12.30;4.28;;;19.00;59.40;;;;;;5072489;28;20029;-62
2021/06/12 05:52:09;;;;;;;3.00;1.58;;;18.90;61.40;;;;;;5056577;28;20021;-58
2021/06/12 05:54:37;;;;;;;10.07;2.30;;;18.90;50.10;;;;;;5074472;28;20029;-61
2021/06/12 05:57:04;;;;;;;17.55;4.72;;;18.70;57.70;;;;;;5056399;28;20193;-56
2021/06/12 05:59:32;;;;;;;14.40;3.38;;;18.60;57.40;;;;;;5073747;28;20501;-58
2021/06/12 06:01:59;;;;;;;9.27;1.55;;;18.60;57.30;;;;;;5073720;28;20020;-54
2021/06/12 06:04:27;;;;;;;32.55;5.68;;;18.50;51.00;;;;;;5070199;28;20378;-64
2021/06/12 06:06:54;;;;;;;29.65;7.93;;;18.50;64.40;;;;;;5073262;28;20065;-62
2021/06/12 06:09:21;;;;;;;10.48;6.38;;;18.40;64.70;;;;;;5072233;28;20507;-58
2021/06/12 06:11:49;;;;;;;17.77;4.88;;;18.40;60.00;;;;;;5071985;28;20029;-60
2021/06/12 06:14:16;;;;;;;5.43;2.63;;;18.40;61.80;;;;;;5073859;28;20099;-63
2021/06/12 06:16:43;;;;;;;13.35;8.52;;;18.40;54.80;;;;;;5054750;28;20029;-60
2021/06/12 06:19:11;;;;;;;6.28;4.40;;;18.40;65.10;;;;;;5073529;28;20072;-60
2021/06/12 06:21:38;;;;;;;7.13;5.20;;;18.40;54.90;;;;;;5055169;28;20031;-56
2021/06/12 06:24:06;;;;;;;12.82;5.03;;;18.40;53.40;;;;;;5073376;28;20032;-59
2021/06/12 06:26:33;;;;;;;12.15;4.55;;;18.40;59.20;;;;;;5072794;28;20391;-60
2021/06/12 06:29:01;;;;;;;23.15;8.85;;;18.30;59.00;;;;;;5072854;28;20096;-62
2021/06/12 06:31:28;;;;;;;22.73;8.48;;;18.40;65.40;;;;;;5072430;28;20024;-55
2021/06/12 06:33:56;;;;;;;16.90;10.18;;;18.30;59.00;;;;;;5073390;28;20035;-60
2021/06/12 06:36:23;;;;;;;22.92;11.07;;;18.30;64.50;;;;;;5073520;28;20098;-61
2021/06/12 06:38:50;;;;;;;13.70;9.23;;;18.30;65.50;;;;;;5073151;28;20062;-64
2021/06/12 06:41:18;;;;;;;15.70;7.82;;;18.30;65.00;;;;;;5073283;28;20017;-52
2021/06/12 06:43:45;;;;;;;25.80;11.02;;;18.30;58.40;;;;;;5073435;28;20776;-65
2021/06/12 06:46:13;;;;;;;17.38;9.40;;;18.30;58.80;;;;;;5072972;28;20426;-61
2021/06/12 06:48:40;;;;;;;23.27;6.82;;;18.10;59.50;;;;;;5054595;28;20031;-63
2021/06/12 06:51:08;;;;;;;39.55;9.98;;;18.10;64.60;;;;;;5071486;28;20020;-52
2021/06/12 06:53:35;;;;;;;19.15;3.92;;;18.20;66.70;;;;;;5072854;28;20020;-55
2021/06/12 06:56:05;;;;;;;7.60;2.75;;;18.10;60.70;;;;;;5054526;28;20061;-57
2021/06/12 06:58:33;;;;;;;24.02;7.25;;;17.90;59.70;;;;;;5067769;28;20048;-57
2021/06/12 07:01:00;;;;;;;14.40;4.68;;;17.90;61.30;;;;;;5071836;28;20024;-56
2021/06/12 07:03:28;;;;;;;21.05;4.85;;;17.90;58.80;;;;;;5065035;28;20040;-51
2021/06/12 07:05:55;;;;;;;15.77;5.25;;;17.90;61.70;;;;;;5067935;28;20294;-48
2021/06/12 07:08:23;;;;;;;29.48;9.15;;;17.90;62.10;;;;;;5062865;28;20032;-51
2021/06/12 07:10:50;;;;;;;16.60;6.13;;;18.00;63.00;;;;;;5046960;28;20012;-47
2021/06/12 07:13:24;;;;;;;45.80;11.70;;;18.00;57.90;;;;;;5068631;28;20127;-56
2021/06/12 07:15:52;;;;;;;19.60;9.05;;;17.90;66.00;;;;;;5057160;28;20161;-47
2021/06/12 07:18:19;;;;;;;49.15;14.85;;;17.80;65.40;;;;;;5062157;28;20171;-60
2021/06/12 07:20:47;;;;;;;47.47;18.58;;;17.90;65.00;;;;;;5062607;28;20029;-51
2021/06/12 07:23:16;;;;;;;29.63;14.45;;;17.90;68.00;;;;;;5062281;28;20033;-55
2021/06/12 07:25:45;;;;;;;40.10;18.30;;;17.90;69.30;;;;;;5065232;28;20344;-53
2021/06/12 07:28:14;;;;;;;70.25;22.52;;;18.00;66.80;;;;;;5070488;28;20036;-58
2021/06/12 07:30:42;;;;;;;57.75;23.98;;;18.10;73.60;;;;;;5061483;28;20025;-56
2021/06/12 07:33:11;;;;;;;43.58;21.00;;;18.20;72.90;;;;;;5060661;28;20387;-56
2021/06/12 07:35:39;;;;;;;45.75;19.70;;;18.20;73.20;;;;;;5062977;28;20037;-57
2021/06/12 07:38:06;;;;;;;37.83;18.60;;;18.20;72.90;;;;;;5063051;28;20487;-62
2021/06/12 07:40:34;;;;;;;32.53;20.83;;;18.20;72.30;;;;;;5069417;28;20078;-54
2021/06/12 07:43:01;;;;;;;15.75;10.52;;;18.20;73.10;;;;;;5058433;28;20020;-59
2021/06/12 07:45:29;;;;;;;27.42;16.40;;;18.20;67.20;;;;;;5059417;28;20025;-55
2021/06/12 07:47:56;;;;;;;24.23;12.90;;;18.10;70.10;;;;;;5059308;28;20086;-66
2021/06/12 07:50:25;;;;;;;29.30;17.20;;;18.20;71.40;;;;;;5056053;28;20352;-62
2021/06/12 07:52:53;;;;;;;22.70;15.55;;;18.20;71.20;;;;;;5057036;28;20476;-61
2021/06/12 07:55:20;;;;;;;22.25;10.02;;;18.20;72.30;;;;;;5061033;28;20484;-61
2021/06/12 07:57:48;;;;;;;11.50;8.85;;;18.10;63.50;;;;;;5058712;28;20067;-57
2021/06/12 08:00:16;;;;;;;15.32;8.38;;;18.00;64.70;;;;;;5066002;28;20383;-62
2021/06/12 08:02:44;;;;;;;31.67;13.90;;;17.80;59.90;;;;;;5065135;28;20028;-65
2021/06/12 08:05:11;;;;;;;22.23;8.95;;;17.70;67.70;;;;;;5068880;28;20031;-63
2021/06/12 08:07:38;;;;;;;24.75;8.52;;;17.60;61.50;;;;;;5062036;28;20683;-60
2021/06/12 08:10:06;;;;;;;26.30;8.02;;;17.60;70.10;;;;;;5064995;28;20075;-61
2021/06/12 08:12:34;;;;;;;16.17;8.43;;;17.50;70.80;;;;;;5067427;28;20028;-55
2021/06/12 08:15:02;;;;;;;16.58;8.88;;;17.60;72.00;;;;;;5064426;28;20035;-59
2021/06/12 08:17:29;;;;;;;19.73;9.77;;;17.50;71.10;;;;;;5066662;28;20475;-55
2021/06/12 08:19:56;;;;;;;13.50;7.85;;;17.50;71.30;;;;;;5066746;28;20044;-61
2021/06/12 08:22:24;;;;;;;8.93;5.60;;;17.20;64.30;;;;;;5068106;28;20028;-58
2021/06/12 08:24:51;;;;;;;10.20;5.25;;;16.90;62.70;;;;;;5065413;28;20025;-51
2021/06/12 08:27:19;;;;;;;21.65;7.45;;;16.60;64.80;;;;;;5068414;28;20029;-54
2021/06/12 08:29:49;;;;;;;19.23;9.25;;;16.60;69.50;;;;;;5068483;28;20028;-58
2021/06/12 08:32:17;;;;;;;16.20;9.40;;;16.50;70.00;;;;;;5065890;28;20107;-57
2021/06/12 08:34:45;;;;;;;17.13;10.52;;;16.80;72.60;;;;;;5045871;28;20082;-55
2021/06/12 08:37:12;;;;;;;27.75;11.10;;;16.90;72.90;;;;;;5068551;28;20028;-57
2021/06/12 08:39:40;;;;;;;27.80;11.50;;;17.00;73.30;;;;;;5067283;28;20037;-51
2021/06/12 08:42:07;;;;;;;15.90;10.48;;;17.10;73.90;;;;;;5068917;28;20046;-55
2021/06/12 08:44:35;;;;;;;20.80;11.27;;;17.10;73.40;;;;;;5065334;28;20051;-64
2021/06/12 08:47:03;;;;;;;19.73;10.07;;;17.10;72.80;;;;;;5067937;28;20024;-56
2021/06/12 08:49:31;;;;;;;17.60;10.27;;;17.10;72.90;;;;;;5068402;28;20071;-48
2021/06/12 08:51:58;;;;;;;20.17;11.00;;;17.10;74.10;;;;;;5071609;28;20080;-46
2021/06/12 08:54:26;;;;;;;15.00;9.68;;;17.10;73.50;;;;;;5068407;28;20029;-51
2021/06/12 08:56:55;;;;;;;20.30;10.68;;;17.00;73.80;;;;;;5071531;28;20075;-52
2021/06/12 08:59:23;;;;;;;16.60;10.07;;;17.00;73.70;;;;;;5068260;28;20036;-53
2021/06/12 09:01:50;;;;;;;17.95;10.40;;;17.00;73.30;;;;;;5072170;28;20036;-53
2021/06/12 09:04:28;;;;;;;13.52;9.40;;;16.90;73.70;;;;;;5067484;28;20069;-55
2021/06/12 09:07:20;;;;;;;22.70;10.35;;;16.90;73.50;;;;;;5069171;28;20028;-54
2021/06/12 09:09:49;;;;;;;21.07;9.17;;;16.80;73.60;;;;;;5070701;28;20021;-60
2021/06/12 09:12:17;;;;;;;16.33;10.48;;;16.80;74.20;;;;;;5052811;28;20036;-60
2021/06/12 09:15:08;;;;;;;16.65;10.15;;;16.70;72.70;;;;;;5050665;28;20551;-62
2021/06/12 09:17:48;;;;;;;16.23;8.85;;;16.70;73.30;;;;;;5070226;28;20521;-54
2021/06/12 09:20:18;;;;;;;12.77;8.95;;;16.70;73.90;;;;;;5070234;28;20051;-52
2021/06/12 09:22:46;;;;;;;12.63;9.75;;;16.60;74.60;;;;;;5069737;28;20434;-57
2021/06/12 09:25:43;;;;;;;13.50;9.43;;;16.60;74.20;;;;;;5051908;28;20125;-50
2021/06/12 09:28:10;;;;;;;13.07;9.07;;;16.60;74.80;;;;;;5071117;28;20044;-53
2021/06/12 09:30:38;;;;;;;11.27;8.45;;;16.60;74.70;;;;;;5071516;28;20024;-51
2021/06/12 09:33:06;;;;;;;11.05;9.43;;;16.60;74.50;;;;;;5067478;28;20068;-55
2021/06/12 09:35:43;;;;;;;13.75;9.68;;;16.50;74.60;;;;;;5070424;28;20146;-51
2021/06/12 09:38:26;;;;;;;12.07;8.82;;;16.50;74.40;;;;;;5070798;28;20048;-55
2021/06/12 09:40:54;;;;;;;13.20;8.77;;;16.50;74.10;;;;;;5052037;28;20053;-53
2021/06/12 09:43:32;;;;;;;14.75;8.63;;;16.50;74.70;;;;;;5067633;28;20032;-57
2021/06/12 09:46:00;;;;;;;13.13;8.63;;;16.50;75.20;;;;;;5071509;28;20035;-51
2021/06/12 09:48:28;;;;;;;12.02;8.95;;;16.50;74.60;;;;;;5071001;28;20027;-52
2021/06/12 09:51:15;;;;;;;12.18;8.05;;;16.50;74.70;;;;;;5071867;28;20021;-56
2021/06/12 09:53:56;;;;;;;15.43;9.13;;;16.40;74.70;;;;;;5067043;28;20044;-51
2021/06/12 09:56:26;;;;;;;10.13;8.02;;;16.40;75.50;;;;;;5071263;28;20035;-52
2021/06/12 09:58:57;;;;;;;13.40;9.05;;;16.40;75.10;;;;;;5053727;28;20462;-53
2021/06/12 10:01:29;;;;;;;12.18;7.95;;;16.40;75.10;;;;;;5036921;28;20104;-54
2021/06/12 10:04:13;;;;;;;13.68;9.27;;;16.40;75.40;;;;;;5067505;28;20364;-52
2021/06/12 10:06:41;;;;;;;13.20;8.10;;;16.30;75.50;;;;;;5069983;28;20036;-61
2021/06/12 10:09:09;;;;;;;9.15;7.18;;;16.30;75.40;;;;;;5071013;28;20020;-54
2021/06/12 10:11:37;;;;;;;10.02;7.18;;;16.30;75.10;;;;;;5071153;28;20020;-61
2021/06/12 10:14:06;;;;;;;10.90;7.72;;;16.30;75.30;;;;;;5062579;28;20036;-56
2021/06/12 10:16:39;;;;;;;13.70;8.65;;;16.20;75.10;;;;;;5069493;28;20013;-55
2021/06/12 10:19:08;;;;;;;13.38;7.85;;;16.20;75.70;;;;;;5070027;28;20053;-49
2021/06/12 10:21:36;;;;;;;11.73;8.40;;;16.20;75.40;;;;;;5070714;28;20544;-50
2021/06/12 10:24:09;;;;;;;12.93;7.78;;;16.20;75.80;;;;;;5067703;28;20476;-51
2021/06/12 10:26:37;;;;;;;10.52;8.10;;;16.20;75.10;;;;;;5052282;28;20075;-52
2021/06/12 10:29:05;;;;;;;12.45;7.65;;;16.10;75.00;;;;;;5067499;28;20012;-53
2021/06/12 10:31:37;;;;;;;12.18;7.53;;;16.10;75.80;;;;;;5067217;28;20028;-53
2021/06/12 10:34:06;;;;;;;10.40;8.07;;;16.10;74.60;;;;;;5066873;28;20025;-54
2021/06/12 10:36:34;;;;;;;11.32;7.68;;;16.10;75.00;;;;;;5070762;28;20067;-54
2021/06/12 10:39:06;;;;;;;8.15;6.78;;;16.00;75.10;;;;;;5069390;28;20528;-46
2021/06/12 10:41:34;;;;;;;9.60;6.70;;;16.00;75.40;;;;;;5070050;28;20028;-56
2021/06/12 10:44:03;;;;;;;10.38;7.25;;;16.00;75.70;;;;;;5067017;28;20570;-52
2021/06/12 10:46:33;;;;;;;9.60;7.45;;;16.00;75.40;;;;;;5069992;28;20024;-57
2021/06/12 10:49:03;;;;;;;9.25;6.88;;;15.90;75.30;;;;;;5069138;28;20040;-55
2021/06/12 10:51:34;;;;;;;11.95;7.80;;;15.90;74.90;;;;;;5070009;28;20434;-53
2021/06/12 10:54:10;;;;;;;10.80;7.32;;;15.90;76.10;;;;;;5066972;28;20104;-59
2021/06/12 10:56:40;;;;;;;10.25;7.40;;;15.90;75.60;;;;;;5068635;28;20025;-55
2021/06/12 10:59:08;;;;;;;11.15;6.88;;;15.90;74.70;;;;;;5069334;28;20037;-56
2021/06/12 11:01:36;;;;;;;10.25;7.50;;;15.80;75.60;;;;;;5069943;28;20032;-64
2021/06/12 11:04:13;;;;;;;8.65;6.90;;;15.80;75.60;;;;;;5065980;28;20025;-54
2021/06/12 11:06:55;;;;;;;10.27;6.88;;;15.80;75.80;;;;;;5070018;28;20027;-53
2021/06/12 11:09:28;;;;;;;9.98;6.70;;;15.80;75.20;;;;;;5067719;28;20029;-59
2021/06/12 11:12:05;;;;;;;10.93;6.95;;;15.80;75.30;;;;;;5069178;28;20028;-61
2021/06/12 11:14:35;;;;;;;8.20;6.50;;;15.80;75.60;;;;;;5030737;28;20029;-56
2021/06/12 11:17:12;;;;;;;9.95;6.45;;;15.80;75.90;;;;;;5068902;28;20456;-58
2021/06/12 11:20:03;;;;;;;11.57;7.20;;;15.80;75.40;;;;;;5066167;28;20475;-60
2021/06/12 11:22:39;;;;;;;7.30;6.22;;;15.80;75.80;;;;;;5069131;28;20830;-51
2021/06/12 11:25:10;;;;;;;9.65;6.45;;;15.70;75.60;;;;;;5063425;28;20028;-58
2021/06/12 11:27:47;;;;;;;9.52;5.90;;;15.70;75.10;;;;;;5067251;28;20024;-52
2021/06/12 11:30:21;;;;;;;8.88;6.68;;;15.70;72.60;;;;;;5070137;28;20020;-51
2021/06/12 11:32:57;;;;;;;8.77;6.38;;;15.70;75.30;;;;;;5073111;28;20101;-67
2021/06/12 11:35:49;;;;;;;8.40;6.97;;;15.70;73.90;;;;;;5072679;28;20463;-59
2021/06/12 11:38:34;;;;;;;8.52;6.13;;;15.60;75.60;;;;;;5073120;28;20037;-56
2021/06/12 11:41:16;;;;;;;10.43;6.75;;;15.60;75.70;;;;;;5054226;28;20082;-60
2021/06/12 11:43:53;;;;;;;10.10;6.10;;;15.60;75.60;;;;;;5055043;28;20074;-52
2021/06/12 11:46:26;;;;;;;10.55;6.03;;;15.60;76.10;;;;;;5072809;28;20029;-53
2021/06/12 11:48:54;;;;;;;8.93;5.78;;;15.60;76.20;;;;;;5072722;28;20545;-51
2021/06/12 11:51:33;;;;;;;8.88;6.50;;;15.60;76.30;;;;;;5072600;28;20033;-48
2021/06/12 11:54:15;;;;;;;6.88;5.63;;;15.50;75.80;;;;;;5072677;28;20375;-53
2021/06/12 11:56:44;;;;;;;9.98;5.95;;;15.50;76.10;;;;;;5072564;28;20163;-61
2021/06/12 11:59:16;;;;;;;7.93;5.65;;;15.50;75.70;;;;;;5072315;28;20050;-63
2021/06/12 12:01:45;;;;;;;;;;;15.40;75.60;;;;;;5073504;28;20017;-66
2021/06/12 12:04:16;;;;;;;6.47;5.40;;;15.40;76.20;;;;;;5071905;28;20555;-61
2021/06/12 12:06:49;;;;;;;6.82;5.70;;;15.40;75.90;;;;;;5072799;28;20021;-65
2021/06/12 12:09:26;;;;;;;6.28;5.10;;;15.40;76.60;;;;;;5072301;28;20052;-63
2021/06/12 12:11:56;;;;;;;9.10;5.38;;;15.30;76.50;;;;;;5072910;28;20040;-56
2021/06/12 12:14:28;;;;;;;8.02;5.93;;;15.30;76.10;;;;;;5072340;28;20024;-60
2021/06/12 12:16:55;;;;;;;;;;;15.30;76.80;;;;;;5073018;28;20028;-65
2021/06/12 12:19:23;;;;;;;8.57;5.50;;;15.20;76.50;;;;;;5071947;28;19940;-61
2021/06/12 12:21:52;;;;;;;7.03;5.88;;;15.30;76.80;;;;;;5072488;28;20116;-64
2021/06/12 12:24:21;;;;;;;8.55;6.07;;;15.20;76.80;;;;;;5054434;28;20021;-66
2021/06/12 12:26:57;;;;;;;7.88;5.78;;;15.20;76.90;;;;;;5075708;28;20035;-63
2021/06/12 12:29:26;;;;;;;6.25;5.32;;;15.20;76.90;;;;;;5076615;28;20028;-65
2021/06/12 12:31:54;;;;;;;7.28;5.43;;;15.10;76.90;;;;;;5076802;28;20463;-58
2021/06/12 12:34:36;;;;;;;10.30;5.72;;;15.20;77.20;;;;;;5076434;28;20029;-63
2021/06/12 12:37:05;;;;;;;6.70;5.38;;;15.10;77.20;;;;;;5076499;28;20486;-60
2021/06/12 12:39:54;;;;;;;6.97;5.05;;;15.10;77.40;;;;;;5076059;28;20501;-61
2021/06/12 12:42:24;;;;;;;6.13;4.90;;;15.10;77.60;;;;;;5076037;28;20052;-62
2021/06/12 12:44:54;;;;;;;9.52;5.82;;;15.10;77.60;;;;;;5076181;28;20368;-62
2021/06/12 12:47:27;;;;;;;8.57;5.72;;;15.00;77.70;;;;;;5076146;28;20028;-66
2021/06/12 12:49:55;;;;;;;6.32;4.95;;;15.00;77.80;;;;;;5075738;28;20025;-64
2021/06/12 12:52:25;;;;;;;7.10;5.00;;;15.00;77.90;;;;;;5075287;28;20114;-65
2021/06/12 12:55:00;;;;;;;8.40;5.25;;;15.00;77.80;;;;;;5076222;28;20024;-59
2021/06/12 12:57:44;;;;;;;7.13;5.07;;;15.00;78.10;;;;;;5075843;28;20052;-66